Terminal Aerodrome Forecast
Issued by NWS Jacksonville, FL

Home | Current Version | Previous Version | Text Only | Print | Product List | Glossary On
Versions: 1 2 3 4 5 6 7 8 9 10 11 12 13 14 15 16
900
FTUS42 KJAX 252359
TAFJAX
TAF
KJAX 252359Z 2600/2624 03005KT P6SM VCTS SCT040CB BKN070 BKN150
     FM260100 00000KT P6SM SCT020 SCT070 BKN150
     FM261400 30005KT P6SM SCT025 BKN100 BKN200
     FM261700 02008KT P6SM VCTS SCT020CB BKN060 OVC100 PROB30
      2617/2621 VRB15G25KT 3SM +TSRA BR SCT010 BKN020CB OVC040=

USA.gov is the U.S. government's official web portal to all federal, state and local government web resources and services.